Terminal Aerodrome Forecast
Issued by NWS

Current Version | Previous Version | Text Only | Print | Product List | Glossary Off
Versions: 1 2 3 4 5 6 7 8 9 10 11 12 13 14 15 16 17 18 19 20 21

956
FTUS41 KRLX 251136
TAFCKB
TAF
KCKB 251136Z 2512/2612 VRB04KT P6SM FEW250
      TEMPO 2512/2513 5SM BR
     FM252200 22006KT P6SM SCT045
     FM260300 VRB03KT P6SM BKN080=

USA.gov is the U.S. government's official web portal to all federal, state and local government web resources and services.